Time;durP1;ratioP1;P1;durP2;ratioP2;P2;SDS_P1;SDS_P2;PMS_P1;PMS_P2;Temp;Humidity;BMP_temperature;BMP_pressure;BME280_temperature;BME280_humidity;BME280_pressure;Samples;Min_cycle;Max_cycle;Signal;HPM_P1;HPM_P2
2021/07/18 00:00:08;;;;;;;11.18;5.28;;;16.70;99.20;;;;;;5026695;28;20046;-86
2021/07/18 00:02:34;;;;;;;12.50;5.25;;;16.70;99.20;;;;;;5041845;28;20042;-89
2021/07/18 00:05:01;;;;;;;9.75;5.22;;;16.70;99.20;;;;;;5044415;28;20029;-87
2021/07/18 00:07:27;;;;;;;15.98;5.43;;;16.60;99.20;;;;;;5027631;28;20079;-87
2021/07/18 00:09:53;;;;;;;10.15;5.40;;;16.60;99.20;;;;;;5044893;28;20574;-87
2021/07/18 00:12:19;;;;;;;8.00;5.80;;;16.60;99.20;;;;;;5042221;28;20030;-86
2021/07/18 00:14:45;;;;;;;14.85;6.38;;;16.50;99.20;;;;;;5023345;28;20340;-86
2021/07/18 00:17:11;;;;;;;12.98;5.63;;;16.50;99.30;;;;;;5010867;28;20045;-87
2021/07/18 00:19:37;;;;;;;12.52;5.45;;;16.50;99.30;;;;;;5031217;28;20048;-86
2021/07/18 00:22:04;;;;;;;11.55;5.43;;;16.50;99.10;;;;;;5044653;28;20045;-87
2021/07/18 00:24:30;;;;;;;9.60;5.40;;;16.40;99.00;;;;;;5029463;28;20134;-86
2021/07/18 00:26:56;;;;;;;13.88;5.68;;;16.30;99.00;;;;;;5048855;28;20491;-86
2021/07/18 00:29:22;;;;;;;11.77;6.25;;;16.30;99.10;;;;;;5004627;28;20496;-86
2021/07/18 00:31:48;;;;;;;14.85;6.60;;;16.30;99.20;;;;;;5028825;28;20045;-86
2021/07/18 00:34:14;;;;;;;15.77;7.53;;;16.20;99.20;;;;;;5039916;28;20064;-87
2021/07/18 00:36:40;;;;;;;14.88;6.68;;;16.20;99.30;;;;;;5072489;28;20060;-89
2021/07/18 00:39:06;;;;;;;12.90;6.53;;;16.10;99.30;;;;;;5056489;28;20033;-87
2021/07/18 00:41:33;;;;;;;12.77;6.80;;;16.10;99.40;;;;;;4997990;28;20609;-87
2021/07/18 00:44:00;;;;;;;13.05;6.65;;;16.10;99.50;;;;;;5019560;28;20430;-87
2021/07/18 00:46:26;;;;;;;17.17;6.53;;;16.10;99.60;;;;;;5043062;28;20033;-87
2021/07/18 00:48:51;;;;;;;16.33;6.38;;;16.10;99.60;;;;;;5027473;28;20042;-87
2021/07/18 00:51:18;;;;;;;15.48;7.07;;;16.10;99.70;;;;;;5046678;28;20068;-86
2021/07/18 00:53:44;;;;;;;13.88;6.72;;;16.00;99.70;;;;;;5031386;28;20040;-87
2021/07/18 00:56:10;;;;;;;19.92;7.10;;;16.00;99.70;;;;;;5048406;28;20029;-88
2021/07/18 00:58:37;;;;;;;14.45;6.13;;;16.00;99.70;;;;;;5029918;28;20407;-88
2021/07/18 01:01:03;;;;;;;14.30;6.97;;;16.00;99.70;;;;;;5044122;28;20030;-87
2021/07/18 01:03:29;;;;;;;13.23;7.07;;;16.00;99.70;;;;;;5040397;28;20033;-87
2021/07/18 01:05:55;;;;;;;12.65;6.45;;;16.00;99.80;;;;;;5031482;28;20071;-87
2021/07/18 01:08:22;;;;;;;13.80;7.20;;;15.90;99.80;;;;;;5031316;28;20033;-86
2021/07/18 01:10:48;;;;;;;13.10;7.05;;;15.90;99.80;;;;;;5064795;28;20035;-89
2021/07/18 01:13:14;;;;;;;13.45;7.30;;;15.90;99.80;;;;;;5050506;28;20029;-87
2021/07/18 01:15:41;;;;;;;13.93;6.75;;;15.90;99.80;;;;;;5030268;28;20118;-86
2021/07/18 01:18:09;;;;;;;13.88;6.20;;;15.90;99.80;;;;;;5037492;28;20381;-88
2021/07/18 01:20:36;;;;;;;13.63;6.60;;;15.80;99.60;;;;;;5062417;28;20037;-87
2021/07/18 01:23:03;;;;;;;15.00;7.20;;;15.80;99.60;;;;;;5012991;28;20094;-87
2021/07/18 01:25:29;;;;;;;15.32;7.20;;;15.80;99.70;;;;;;5033177;28;20036;-88
2021/07/18 01:27:55;;;;;;;21.85;7.50;;;15.70;99.70;;;;;;5042453;28;20479;-88
2021/07/18 01:30:21;;;;;;;12.23;7.40;;;15.70;99.90;;;;;;5034046;28;20098;-89
2021/07/18 01:32:47;;;;;;;12.38;7.72;;;15.70;99.90;;;;;;5062853;28;20032;-87
2021/07/18 01:35:13;;;;;;;15.20;7.60;;;15.70;99.90;;;;;;5046362;28;20059;-87
2021/07/18 01:37:40;;;;;;;17.45;8.07;;;15.70;99.90;;;;;;5007787;28;20132;-87
2021/07/18 01:40:10;;;;;;;16.70;7.10;;;15.70;99.90;;;;;;5043938;28;20033;-87
2021/07/18 01:42:41;;;;;;;12.63;7.18;;;15.70;99.90;;;;;;5030976;28;20045;-87
2021/07/18 01:45:07;;;;;;;14.23;8.30;;;15.70;99.90;;;;;;5046151;28;20098;-87
2021/07/18 01:47:33;;;;;;;16.67;7.85;;;15.60;99.90;;;;;;5025409;28;20029;-87
2021/07/18 01:49:59;;;;;;;15.90;8.50;;;15.60;99.90;;;;;;5026106;28;20068;-87
2021/07/18 01:52:25;;;;;;;18.88;7.38;;;15.70;99.90;;;;;;5038183;28;20045;-87
2021/07/18 01:54:54;;;;;;;16.20;8.20;;;15.60;99.90;;;;;;5046987;28;20421;-86
2021/07/18 01:57:20;;;;;;;13.85;7.80;;;15.60;99.90;;;;;;5047141;28;20406;-87
2021/07/18 01:59:46;;;;;;;13.85;8.23;;;15.60;99.90;;;;;;5033519;28;20112;-87
2021/07/18 02:02:13;;;;;;;19.30;8.23;;;15.60;99.90;;;;;;5042884;28;20033;-88
2021/07/18 02:04:39;;;;;;;18.65;8.73;;;15.60;99.90;;;;;;5053850;28;20445;-86
2021/07/18 02:07:05;;;;;;;16.00;8.52;;;15.60;99.90;;;;;;5030160;28;20124;-86
2021/07/18 02:09:35;;;;;;;17.95;9.25;;;15.60;99.90;;;;;;5028115;28;20045;-86
2021/07/18 02:12:01;;;;;;;15.32;9.63;;;15.60;99.90;;;;;;5056242;28;20037;-86
2021/07/18 02:14:28;;;;;;;17.67;10.32;;;15.60;99.90;;;;;;5043716;28;20040;-87
2021/07/18 02:16:54;;;;;;;18.00;10.20;;;15.60;99.90;;;;;;5045239;28;20368;-86
2021/07/18 02:19:19;;;;;;;16.77;9.77;;;15.60;99.90;;;;;;5023880;28;20072;-88
2021/07/18 02:21:46;;;;;;;17.30;8.40;;;15.50;99.90;;;;;;5045008;28;20044;-86
2021/07/18 02:24:12;;;;;;;17.80;9.13;;;15.50;99.90;;;;;;5008335;28;20064;-87
2021/07/18 02:26:38;;;;;;;14.32;8.25;;;15.50;99.90;;;;;;5023732;28;20025;-86
2021/07/18 02:29:04;;;;;;;14.65;8.93;;;15.50;99.90;;;;;;5026397;28;20111;-89
2021/07/18 02:31:30;;;;;;;13.35;8.70;;;15.50;99.90;;;;;;5056030;28;20696;-86
2021/07/18 02:33:56;;;;;;;20.10;10.23;;;15.50;99.90;;;;;;5026233;28;20116;-87
2021/07/18 02:36:22;;;;;;;14.90;9.52;;;15.50;99.90;;;;;;5013915;28;20119;-87
2021/07/18 02:38:48;;;;;;;17.30;10.02;;;15.50;99.90;;;;;;5051481;28;20044;-86
2021/07/18 02:41:14;;;;;;;16.83;10.05;;;15.50;99.90;;;;;;5045904;28;20132;-85
2021/07/18 02:43:41;;;;;;;20.38;11.05;;;15.40;99.90;;;;;;5032137;28;20083;-86
2021/07/18 02:46:07;;;;;;;17.60;10.20;;;15.50;99.90;;;;;;5049668;28;20487;-86
2021/07/18 02:48:36;;;;;;;16.58;10.65;;;15.40;99.90;;;;;;5032919;28;20605;-87
2021/07/18 02:51:03;;;;;;;19.10;12.07;;;15.40;99.90;;;;;;5037620;28;20033;-88
2021/07/18 02:53:29;;;;;;;25.25;12.00;;;15.40;99.90;;;;;;5039032;28;20049;-88
2021/07/18 02:55:55;;;;;;;20.27;11.40;;;15.40;99.90;;;;;;5024914;28;20061;-87
2021/07/18 02:58:20;;;;;;;21.25;11.20;;;15.40;99.90;;;;;;5041539;28;20028;-88
2021/07/18 03:00:46;;;;;;;21.10;12.15;;;15.30;99.90;;;;;;5044141;28;20033;-87
2021/07/18 03:03:12;;;;;;;28.40;11.93;;;15.30;99.90;;;;;;5013970;28;20065;-88
2021/07/18 03:05:38;;;;;;;91.57;11.95;;;15.20;99.90;;;;;;5043421;28;20033;-86
2021/07/18 03:08:04;;;;;;;107.97;10.77;;;15.20;99.90;;;;;;5040350;28;20041;-85
2021/07/18 03:10:30;;;;;;;57.30;10.55;;;15.10;99.90;;;;;;5044767;28;20036;-85
2021/07/18 03:12:56;;;;;;;27.05;11.13;;;15.10;99.90;;;;;;5044055;28;20098;-85
2021/07/18 03:15:21;;;;;;;13.80;10.30;;;15.00;99.90;;;;;;5006346;28;20042;-86
2021/07/18 03:17:47;;;;;;;17.02;11.52;;;15.00;99.90;;;;;;5053853;28;20155;-86
2021/07/18 03:20:15;;;;;;;17.35;11.35;;;15.00;99.90;;;;;;5041854;28;20037;-85
2021/07/18 03:22:42;;;;;;;32.10;12.73;;;15.00;99.90;;;;;;5010081;28;20041;-85
2021/07/18 03:25:10;;;;;;;19.73;11.30;;;15.00;99.90;;;;;;5029731;28;20080;-86
2021/07/18 03:27:36;;;;;;;17.38;11.70;;;15.00;99.90;;;;;;5002244;28;20103;-85
2021/07/18 03:30:05;;;;;;;19.05;12.23;;;15.00;99.90;;;;;;5022230;28;20407;-85
2021/07/18 03:32:31;;;;;;;24.88;12.98;;;15.00;99.90;;;;;;5027450;28;20245;-86
2021/07/18 03:34:57;;;;;;;31.85;13.15;;;15.00;99.90;;;;;;5054333;28;20044;-86
2021/07/18 03:37:23;;;;;;;24.92;12.23;;;15.00;99.90;;;;;;5027472;28;20083;-85
2021/07/18 03:39:50;;;;;;;31.63;13.82;;;15.00;99.90;;;;;;5027576;28;20037;-85
2021/07/18 03:42:15;;;;;;;41.20;14.82;;;15.00;99.90;;;;;;5027217;28;20091;-86
2021/07/18 03:44:41;;;;;;;39.15;14.35;;;15.00;99.90;;;;;;5045104;28;20033;-86
2021/07/18 03:47:07;;;;;;;54.33;14.40;;;15.00;99.90;;;;;;5029429;28;20116;-86
2021/07/18 03:49:34;;;;;;;32.13;14.65;;;15.10;99.90;;;;;;5014293;28;20309;-86
2021/07/18 03:52:00;;;;;;;32.90;14.05;;;15.10;99.90;;;;;;5037477;28;20067;-86
2021/07/18 03:54:26;;;;;;;46.63;14.20;;;15.10;99.90;;;;;;5055480;28;20028;-86
2021/07/18 03:56:51;;;;;;;46.67;14.60;;;15.10;99.90;;;;;;5038363;28;20059;-85
2021/07/18 03:59:17;;;;;;;45.88;14.63;;;15.10;99.90;;;;;;5044349;28;20030;-87
2021/07/18 04:01:43;;;;;;;36.10;13.90;;;15.20;99.90;;;;;;5033937;28;20037;-87
2021/07/18 04:04:09;;;;;;;62.47;17.08;;;15.20;99.90;;;;;;5031312;28;20033;-87
2021/07/18 04:06:34;;;;;;;110.38;19.63;;;15.20;99.90;;;;;;5048218;28;20076;-87
2021/07/18 04:09:00;;;;;;;112.15;18.23;;;15.20;99.90;;;;;;5034328;28;20044;-87
2021/07/18 04:11:26;;;;;;;66.43;16.25;;;15.20;99.90;;;;;;5046609;28;20029;-87
2021/07/18 04:13:52;;;;;;;66.28;16.08;;;15.30;99.90;;;;;;5032592;28;20279;-87
2021/07/18 04:16:18;;;;;;;60.70;15.45;;;15.30;99.90;;;;;;5015567;28;20036;-87
2021/07/18 04:18:43;;;;;;;65.47;15.30;;;15.30;99.90;;;;;;5050121;28;20036;-86
2021/07/18 04:21:09;;;;;;;64.47;15.50;;;15.40;99.90;;;;;;5048623;28;20045;-86
2021/07/18 04:23:35;;;;;;;32.40;14.00;;;15.40;99.90;;;;;;5032524;28;20480;-86
2021/07/18 04:26:01;;;;;;;38.15;14.38;;;15.40;99.90;;;;;;5029767;28;20051;-86
2021/07/18 04:28:27;;;;;;;51.13;14.23;;;15.40;99.90;;;;;;5031344;28;20252;-87
2021/07/18 04:30:52;;;;;;;80.25;16.00;;;15.40;99.90;;;;;;5048610;28;20037;-86
2021/07/18 04:33:18;;;;;;;57.40;14.30;;;15.50;99.90;;;;;;5025845;28;20037;-87
2021/07/18 04:35:44;;;;;;;95.70;17.67;;;15.50;99.90;;;;;;5014319;28;20072;-86
2021/07/18 04:38:10;;;;;;;71.72;16.30;;;15.50;99.90;;;;;;5001712;28;20069;-86
2021/07/18 04:40:36;;;;;;;121.03;16.17;;;15.50;99.90;;;;;;5037083;28;20037;-86
2021/07/18 04:43:03;;;;;;;97.72;15.68;;;15.60;99.90;;;;;;5041675;28;20063;-86
2021/07/18 04:45:29;;;;;;;76.25;17.13;;;15.60;99.90;;;;;;5047987;28;20040;-86
2021/07/18 04:47:57;;;;;;;39.88;13.48;;;15.60;99.90;;;;;;5030221;28;20287;-86
2021/07/18 04:50:25;;;;;;;70.03;16.38;;;15.60;99.90;;;;;;5035414;28;20048;-86
2021/07/18 04:52:51;;;;;;;65.32;15.70;;;15.60;99.90;;;;;;5047724;28;20037;-86
2021/07/18 04:55:18;;;;;;;64.15;15.95;;;15.70;99.90;;;;;;5031062;28;20551;-86
2021/07/18 04:57:44;;;;;;;58.83;15.25;;;15.70;99.90;;;;;;5048678;28;20391;-86
2021/07/18 05:00:21;;;;;;;30.63;14.18;;;15.80;99.90;;;;;;5046016;28;20041;-86
2021/07/18 05:02:48;;;;;;;56.17;13.68;;;15.80;99.90;;;;;;5044762;28;20041;-86
2021/07/18 05:05:16;;;;;;;42.63;15.32;;;15.90;99.90;;;;;;5059571;28;20052;-86
2021/07/18 05:07:48;;;;;;;38.55;15.32;;;15.90;99.90;;;;;;5046006;28;20522;-86
2021/07/18 05:10:15;;;;;;;31.90;14.38;;;15.90;99.90;;;;;;5054181;28;20060;-86
2021/07/18 05:12:41;;;;;;;28.67;14.63;;;16.00;99.90;;;;;;5042675;28;20033;-87
2021/07/18 05:15:07;;;;;;;24.27;14.55;;;16.00;99.90;;;;;;5023060;28;20025;-86
2021/07/18 05:17:33;;;;;;;26.08;15.43;;;16.00;99.90;;;;;;5012922;28;20148;-86
2021/07/18 05:19:59;;;;;;;27.92;15.35;;;16.10;99.90;;;;;;5045700;28;20040;-86
2021/07/18 05:22:25;;;;;;;18.23;13.35;;;16.10;99.90;;;;;;5047724;28;20112;-86
2021/07/18 05:24:53;;;;;;;22.27;14.15;;;16.20;99.90;;;;;;5047407;28;20442;-86
2021/07/18 05:27:19;;;;;;;35.63;17.75;;;16.20;99.90;;;;;;5029461;28;20393;-86
2021/07/18 05:29:45;;;;;;;24.58;16.02;;;16.30;99.90;;;;;;5038675;28;20426;-86
2021/07/18 05:32:11;;;;;;;23.35;15.32;;;16.40;99.90;;;;;;5019141;28;20091;-86
2021/07/18 05:34:38;;;;;;;24.92;15.55;;;16.40;99.90;;;;;;5030583;28;20670;-86
2021/07/18 05:37:05;;;;;;;27.67;15.98;;;16.40;99.90;;;;;;5047179;28;20060;-86
2021/07/18 05:39:31;;;;;;;27.88;15.88;;;16.50;99.90;;;;;;5062678;28;20086;-85
2021/07/18 05:41:59;;;;;;;24.63;14.93;;;16.60;99.90;;;;;;5031769;28;20034;-85
2021/07/18 05:44:25;;;;;;;28.10;15.82;;;16.70;99.90;;;;;;5012003;28;20400;-85
2021/07/18 05:46:51;;;;;;;22.88;15.32;;;16.70;99.90;;;;;;5060948;28;20037;-85
2021/07/18 05:49:17;;;;;;;23.88;15.32;;;16.80;99.90;;;;;;5057883;28;20033;-86
2021/07/18 05:51:43;;;;;;;26.73;15.77;;;16.80;99.90;;;;;;5059713;28;20029;-85
2021/07/18 05:54:09;;;;;;;27.25;15.52;;;16.90;99.90;;;;;;5063242;28;20029;-85
2021/07/18 05:56:35;;;;;;;25.30;14.98;;;17.00;99.90;;;;;;5014260;28;20098;-86
2021/07/18 05:59:02;;;;;;;25.02;14.20;;;17.00;99.90;;;;;;5047913;28;20040;-85
2021/07/18 06:01:27;;;;;;;18.25;13.35;;;17.10;99.90;;;;;;5025555;28;20036;-85
2021/07/18 06:03:53;;;;;;;23.80;13.07;;;17.20;99.90;;;;;;5041926;28;20472;-85
2021/07/18 06:06:19;;;;;;;25.90;15.13;;;17.30;99.90;;;;;;5044297;28;20498;-85
2021/07/18 06:08:45;;;;;;;20.92;14.10;;;17.30;99.90;;;;;;5047279;28;20101;-86
2021/07/18 06:11:10;;;;;;;20.75;12.40;;;17.40;99.90;;;;;;5046697;28;20087;-86
2021/07/18 06:13:36;;;;;;;20.17;11.77;;;17.50;99.90;;;;;;5042627;28;20462;-86
2021/07/18 06:16:02;;;;;;;19.48;12.60;;;17.50;99.90;;;;;;5041225;28;20028;-85
2021/07/18 06:18:28;;;;;;;20.10;11.73;;;17.60;99.90;;;;;;5046018;28;20063;-85
2021/07/18 06:20:54;;;;;;;20.23;10.90;;;17.70;99.90;;;;;;5042198;28;20037;-85
2021/07/18 06:23:20;;;;;;;20.25;11.52;;;17.80;99.90;;;;;;5050419;28;20484;-85
2021/07/18 06:25:46;;;;;;;17.02;11.55;;;17.90;99.90;;;;;;5038209;28;20043;-86
2021/07/18 06:28:11;;;;;;;18.92;11.45;;;17.90;99.90;;;;;;5011086;28;20128;-85
2021/07/18 06:30:37;;;;;;;18.65;11.20;;;18.00;99.90;;;;;;5043744;28;20033;-85
2021/07/18 06:33:03;;;;;;;24.23;11.18;;;18.10;99.90;;;;;;5043265;28;20118;-85
2021/07/18 06:35:29;;;;;;;17.52;10.23;;;18.20;99.90;;;;;;5043115;28;20037;-85
2021/07/18 06:37:56;;;;;;;17.08;10.18;;;18.30;99.90;;;;;;5021223;28;20451;-85
2021/07/18 06:40:22;;;;;;;17.52;9.63;;;18.40;99.90;;;;;;5036759;28;20115;-85
2021/07/18 06:42:48;;;;;;;18.13;9.73;;;18.50;99.90;;;;;;5042252;28;20320;-86
2021/07/18 06:45:15;;;;;;;15.60;9.50;;;18.60;99.90;;;;;;5041289;28;20043;-86
2021/07/18 06:47:40;;;;;;;17.75;10.05;;;18.70;99.90;;;;;;5044853;28;20450;-86
2021/07/18 06:50:08;;;;;;;14.32;9.60;;;18.80;99.90;;;;;;5047520;28;20028;-86
2021/07/18 06:52:34;;;;;;;16.08;9.05;;;18.90;99.90;;;;;;5058149;28;20112;-85
2021/07/18 06:55:00;;;;;;;14.45;9.93;;;19.00;99.90;;;;;;5026293;28;20116;-86
2021/07/18 06:57:26;;;;;;;14.75;8.98;;;19.10;99.90;;;;;;5027411;28;20037;-86
2021/07/18 06:59:52;;;;;;;15.93;10.52;;;19.30;99.90;;;;;;5042708;28;20065;-86
2021/07/18 07:02:17;;;;;;;13.93;9.30;;;19.40;99.90;;;;;;5010950;28;20807;-85
2021/07/18 07:04:43;;;;;;;15.88;10.65;;;19.40;99.90;;;;;;5045233;28;20054;-87
2021/07/18 07:07:10;;;;;;;11.57;8.88;;;19.50;99.90;;;;;;5042636;28;20047;-86
2021/07/18 07:09:36;;;;;;;12.95;8.60;;;19.60;99.80;;;;;;5033364;28;20044;-86
2021/07/18 07:12:02;;;;;;;15.63;8.35;;;19.70;99.60;;;;;;5045616;28;20033;-86
2021/07/18 07:14:29;;;;;;;13.35;7.13;;;19.80;99.50;;;;;;5046793;28;20041;-88
2021/07/18 07:16:54;;;;;;;10.60;6.53;;;19.90;99.30;;;;;;5061047;28;20056;-85
2021/07/18 07:19:20;;;;;;;12.15;7.00;;;20.00;99.10;;;;;;5030202;28;20298;-86
2021/07/18 07:21:46;;;;;;;12.20;7.03;;;20.10;99.00;;;;;;5061807;28;20056;-87
2021/07/18 07:24:15;;;;;;;9.65;6.13;;;20.20;98.80;;;;;;5040171;28;20388;-86
2021/07/18 07:26:41;;;;;;;13.60;7.05;;;20.30;98.60;;;;;;5045990;28;20033;-87
2021/07/18 07:29:09;;;;;;;13.07;6.72;;;20.40;98.40;;;;;;5035125;28;20098;-86
2021/07/18 07:31:35;;;;;;;11.52;5.75;;;20.50;98.30;;;;;;5018107;28;20618;-86
2021/07/18 07:34:01;;;;;;;10.50;4.65;;;20.50;98.10;;;;;;5040442;28;20042;-85
2021/07/18 07:36:26;;;;;;;11.40;5.03;;;20.70;97.80;;;;;;5042604;28;20384;-86
2021/07/18 07:38:52;;;;;;;11.00;4.93;;;20.70;97.50;;;;;;5029964;28;20025;-86
2021/07/18 07:41:22;;;;;;;8.65;5.68;;;20.80;97.20;;;;;;5009218;28;20030;-86
2021/07/18 07:43:48;;;;;;;10.45;3.60;;;20.90;97.00;;;;;;5045458;28;20198;-85
2021/07/18 07:46:14;;;;;;;6.53;3.60;;;20.90;96.60;;;;;;5028124;28;20120;-86
2021/07/18 07:48:40;;;;;;;6.72;3.95;;;20.90;96.40;;;;;;5043077;28;20087;-87
2021/07/18 07:51:06;;;;;;;8.05;4.25;;;21.00;96.50;;;;;;5040036;28;20036;-86
2021/07/18 07:53:32;;;;;;;8.88;5.15;;;21.00;96.50;;;;;;5043431;28;20033;-86
2021/07/18 07:55:59;;;;;;;6.93;3.20;;;21.10;96.20;;;;;;5036016;28;20402;-87
2021/07/18 07:58:27;;;;;;;6.63;3.35;;;21.20;96.00;;;;;;5044153;28;20398;-87
2021/07/18 08:00:53;;;;;;;8.68;3.00;;;21.20;95.60;;;;;;5040528;28;20033;-86
2021/07/18 08:03:20;;;;;;;7.78;3.97;;;21.30;95.60;;;;;;5038542;28;20033;-87
2021/07/18 08:05:46;;;;;;;6.45;3.72;;;21.30;95.70;;;;;;5037262;28;20439;-85
2021/07/18 08:08:12;;;;;;;4.63;2.75;;;21.30;95.50;;;;;;5027343;28;20041;-85
2021/07/18 08:10:38;;;;;;;5.97;2.72;;;21.40;95.10;;;;;;5054137;28;20045;-85
2021/07/18 08:13:04;;;;;;;5.60;2.60;;;21.50;95.20;;;;;;5040361;28;20399;-87
2021/07/18 08:15:36;;;;;;;9.05;2.85;;;21.50;94.30;;;;;;5009183;28;20056;-86
2021/07/18 08:18:03;;;;;;;7.80;3.13;;;21.60;93.90;;;;;;5047996;28;20252;-85
2021/07/18 08:20:35;;;;;;;5.75;2.47;;;21.60;93.90;;;;;;5045875;28;20063;-86
2021/07/18 08:23:04;;;;;;;5.78;2.55;;;21.70;93.70;;;;;;5048387;28;20048;-86
2021/07/18 08:25:36;;;;;;;4.85;2.83;;;21.70;93.50;;;;;;5059923;28;20037;-85
2021/07/18 08:28:03;;;;;;;5.10;2.72;;;21.70;93.50;;;;;;5029682;28;20033;-86
2021/07/18 08:30:36;;;;;;;5.25;2.70;;;21.80;93.50;;;;;;5042721;28;20041;-84
2021/07/18 08:33:03;;;;;;;4.95;2.90;;;21.80;93.50;;;;;;5043483;28;20140;-85
2021/07/18 08:35:29;;;;;;;5.22;2.72;;;21.90;93.50;;;;;;5010910;28;20057;-86
2021/07/18 08:38:05;;;;;;;5.85;2.83;;;21.90;93.40;;;;;;5025211;28;20030;-85
2021/07/18 08:40:36;;;;;;;5.85;2.95;;;22.00;93.40;;;;;;5028779;28;20037;-86
2021/07/18 08:43:04;;;;;;;4.93;2.97;;;22.00;93.50;;;;;;5042855;28;20094;-86
2021/07/18 08:45:31;;;;;;;9.07;2.65;;;22.00;93.70;;;;;;5046561;28;20549;-86
2021/07/18 08:47:57;;;;;;;3.72;2.33;;;22.10;93.40;;;;;;5033528;28;20111;-85
2021/07/18 08:50:23;;;;;;;5.25;2.70;;;22.10;93.30;;;;;;5042181;28;20161;-87
2021/07/18 08:52:57;;;;;;;8.38;2.70;;;22.10;92.60;;;;;;5029708;28;20044;-87
2021/07/18 08:55:24;;;;;;;6.00;2.50;;;22.10;92.20;;;;;;5045281;28;20320;-86
2021/07/18 08:57:51;;;;;;;3.50;2.70;;;22.10;92.40;;;;;;5045122;28;20136;-86
2021/07/18 09:00:18;;;;;;;3.67;2.28;;;22.20;92.80;;;;;;5035783;28;20093;-87
2021/07/18 09:02:43;;;;;;;4.93;2.65;;;22.10;92.60;;;;;;5048195;28;20044;-84
2021/07/18 09:05:10;;;;;;;4.88;2.70;;;22.20;92.70;;;;;;5027496;28;20046;-85
2021/07/18 09:07:46;;;;;;;7.68;2.95;;;22.20;92.50;;;;;;5045746;28;20254;-86
2021/07/18 09:10:13;;;;;;;5.13;2.70;;;22.20;92.70;;;;;;5047758;28;20064;-85
2021/07/18 09:12:39;;;;;;;4.93;2.80;;;22.20;92.50;;;;;;5024399;28;20046;-87
2021/07/18 09:15:07;;;;;;;5.45;2.58;;;22.30;92.70;;;;;;5086529;28;20052;-87
2021/07/18 09:17:35;;;;;;;4.10;2.65;;;22.20;92.40;;;;;;5059873;28;20037;-84
2021/07/18 09:20:17;;;;;;;7.00;2.67;;;22.20;92.10;;;;;;5048948;28;20033;-87
2021/07/18 09:22:44;;;;;;;5.32;2.55;;;22.20;92.00;;;;;;5047269;28;20057;-85
2021/07/18 09:25:10;;;;;;;2.75;1.95;;;22.30;91.80;;;;;;5064329;28;20033;-85
2021/07/18 09:27:36;;;;;;;6.60;2.60;;;22.30;91.80;;;;;;5047809;28;20094;-87
2021/07/18 09:30:14;;;;;;;4.68;2.38;;;22.30;91.50;;;;;;5047225;28;20033;-86
2021/07/18 09:32:44;;;;;;;2.80;2.45;;;22.30;92.00;;;;;;5050715;28;20048;-86
2021/07/18 09:35:14;;;;;;;3.78;2.40;;;22.30;91.40;;;;;;5059275;28;20029;-86
2021/07/18 09:37:45;;;;;;;4.72;2.58;;;22.30;91.20;;;;;;5052688;28;20447;-86
2021/07/18 09:40:20;;;;;;;5.25;2.53;;;22.40;91.50;;;;;;5041395;28;20515;-83
2021/07/18 09:42:49;;;;;;;5.65;2.58;;;22.40;91.70;;;;;;5036082;28;20037;-85
2021/07/18 09:45:21;;;;;;;4.65;2.90;;;22.40;91.60;;;;;;5033220;28;20029;-85
2021/07/18 09:48:03;;;;;;;7.50;2.70;;;22.50;91.80;;;;;;5051388;28;20167;-85
2021/07/18 09:50:46;;;;;;;3.33;2.17;;;22.50;91.50;;;;;;5036500;28;20041;-86
2021/07/18 09:53:15;;;;;;;5.05;2.47;;;22.50;91.30;;;;;;5044780;28;20207;-86
2021/07/18 09:56:03;;;;;;;4.07;2.45;;;22.60;91.40;;;;;;5046820;28;20037;-84
2021/07/18 09:58:31;;;;;;;6.13;2.40;;;22.60;91.60;;;;;;5056534;28;20095;-86
2021/07/18 10:00:59;;;;;;;3.05;2.40;;;22.70;91.20;;;;;;5018599;28;20044;-87
2021/07/18 10:03:27;;;;;;;5.75;2.30;;;22.70;90.80;;;;;;5066271;28;20324;-86
2021/07/18 10:06:19;;;;;;;7.13;2.63;;;22.80;90.40;;;;;;5065857;28;20029;-87
2021/07/18 10:08:49;;;;;;;4.05;2.45;;;22.80;90.90;;;;;;5047682;28;20482;-86
2021/07/18 10:11:18;;;;;;;4.30;2.50;;;22.90;91.00;;;;;;5033200;28;20128;-85
2021/07/18 10:13:46;;;;;;;6.55;2.95;;;23.00;90.70;;;;;;5039266;28;20140;-86
2021/07/18 10:16:13;;;;;;;6.75;3.03;;;23.00;90.60;;;;;;5037739;28;20087;-85
2021/07/18 10:18:40;;;;;;;3.95;2.40;;;23.10;90.80;;;;;;5021289;28;20128;-86
2021/07/18 10:21:08;;;;;;;3.38;2.50;;;23.10;90.60;;;;;;5050439;28;20350;-86
2021/07/18 10:23:35;;;;;;;3.75;2.20;;;23.10;90.30;;;;;;5027213;28;20038;-87
2021/07/18 10:26:02;;;;;;;4.93;2.70;;;23.10;90.10;;;;;;5048018;28;20280;-86
2021/07/18 10:28:28;;;;;;;4.55;2.47;;;23.20;89.50;;;;;;5017044;28;20048;-90
2021/07/18 10:31:11;;;;;;;4.38;2.30;;;23.20;89.10;;;;;;5062286;28;20033;-87
2021/07/18 10:33:37;;;;;;;5.90;2.30;;;23.10;90.00;;;;;;5042562;28;20040;-87
2021/07/18 10:36:04;;;;;;;4.57;2.70;;;23.10;90.30;;;;;;5047288;28;20040;-86
2021/07/18 10:38:34;;;;;;;3.03;2.47;;;23.20;90.10;;;;;;5021333;28;20053;-87
2021/07/18 10:41:01;;;;;;;3.58;2.13;;;23.30;90.10;;;;;;5042885;28;20029;-87
2021/07/18 10:43:38;;;;;;;3.60;2.13;;;23.30;89.40;;;;;;5059018;28;20348;-88
2021/07/18 10:46:06;;;;;;;6.00;2.00;;;23.40;89.00;;;;;;5045106;28;20033;-87
2021/07/18 10:48:52;;;;;;;4.63;2.28;;;23.50;88.90;;;;;;5057268;28;20428;-86
2021/07/18 10:51:20;;;;;;;4.20;2.33;;;23.60;89.30;;;;;;5044347;28;20506;-86
2021/07/18 10:53:50;;;;;;;5.20;2.58;;;23.60;88.50;;;;;;5043189;28;20049;-85
2021/07/18 10:56:20;;;;;;;6.65;2.50;;;23.70;88.40;;;;;;5063143;28;20044;-86
2021/07/18 10:58:48;;;;;;;5.93;2.75;;;23.70;88.30;;;;;;5036706;28;20041;-87
2021/07/18 11:01:20;;;;;;;5.47;2.33;;;23.70;88.80;;;;;;5055573;28;20036;-89
2021/07/18 11:03:46;;;;;;;7.18;2.75;;;23.70;87.30;;;;;;5058588;28;20112;-87
2021/07/18 11:06:30;;;;;;;3.03;2.72;;;23.70;86.90;;;;;;5044951;28;20051;-87
2021/07/18 11:09:22;;;;;;;3.95;2.05;;;23.70;87.40;;;;;;5039390;28;20036;-85
2021/07/18 11:11:57;;;;;;;6.70;2.45;;;23.70;87.40;;;;;;5055992;28;20052;-86
2021/07/18 11:14:25;;;;;;;5.35;2.33;;;23.70;87.40;;;;;;5029014;28;20418;-87
2021/07/18 11:16:56;;;;;;;3.47;2.47;;;23.70;87.30;;;;;;5059590;28;20025;-88
2021/07/18 11:19:37;;;;;;;2.90;2.00;;;23.70;87.60;;;;;;5042459;28;20032;-86
2021/07/18 11:22:13;;;;;;;5.53;2.28;;;23.90;88.00;;;;;;5062397;28;20040;-87
2021/07/18 11:24:48;;;;;;;5.50;2.17;;;23.80;86.80;;;;;;5027767;28;20037;-88
2021/07/18 11:27:35;;;;;;;4.15;2.15;;;23.90;87.60;;;;;;5062841;28;20039;-88
2021/07/18 11:30:05;;;;;;;3.63;2.40;;;23.90;85.30;;;;;;5048726;28;20059;-87
2021/07/18 11:32:32;;;;;;;3.28;1.90;;;23.90;84.90;;;;;;5043660;28;20064;-86
2021/07/18 11:35:00;;;;;;;4.15;2.20;;;24.00;84.80;;;;;;5039932;28;20447;-87
2021/07/18 11:37:28;;;;;;;3.08;1.90;;;24.10;85.70;;;;;;5051963;28;20037;-86
2021/07/18 11:40:03;;;;;;;4.88;2.25;;;24.10;85.60;;;;;;5037836;28;20039;-86
2021/07/18 11:42:28;;;;;;;3.78;2.20;;;24.20;85.30;;;;;;5061612;28;20043;-87
2021/07/18 11:44:55;;;;;;;3.70;2.13;;;24.20;85.10;;;;;;5038648;28;20025;-86
2021/07/18 11:47:23;;;;;;;3.97;2.38;;;24.20;85.40;;;;;;5045541;28;20078;-87
2021/07/18 11:49:51;;;;;;;3.20;2.17;;;24.20;85.10;;;;;;5024872;28;20492;-87
2021/07/18 11:52:22;;;;;;;3.25;2.30;;;24.30;86.10;;;;;;5058766;28;20059;-87
2021/07/18 11:54:48;;;;;;;4.88;2.20;;;24.30;84.70;;;;;;5045809;28;20052;-87
2021/07/18 11:57:17;;;;;;;4.47;1.90;;;24.40;85.30;;;;;;5014221;28;20048;-85
2021/07/18 11:59:45;;;;;;;3.00;2.25;;;24.40;84.10;;;;;;5046783;28;20455;-85
2021/07/18 12:02:12;;;;;;;3.63;2.20;;;24.40;83.40;;;;;;5060388;28;20030;-84
2021/07/18 12:04:40;;;;;;;3.63;2.00;;;24.50;83.00;;;;;;5044926;28;20057;-85
2021/07/18 12:07:14;;;;;;;5.15;2.40;;;24.60;83.10;;;;;;5047117;28;20036;-86
2021/07/18 12:09:47;;;;;;;3.47;2.10;;;24.70;82.50;;;;;;5044079;28;20066;-87
2021/07/18 12:12:18;;;;;;;3.85;2.17;;;24.60;81.80;;;;;;5044114;28;20418;-88
2021/07/18 12:14:45;;;;;;;3.13;2.00;;;24.60;80.60;;;;;;5043568;28;20392;-86
2021/07/18 12:17:13;;;;;;;2.90;1.90;;;24.50;81.30;;;;;;5032412;28;20091;-87
2021/07/18 12:19:39;;;;;;;4.78;2.05;;;24.50;81.70;;;;;;5048655;28;20037;-87
2021/07/18 12:22:18;;;;;;;5.18;2.42;;;24.50;82.50;;;;;;5053780;28;20040;-87
2021/07/18 12:24:48;;;;;;;3.47;2.20;;;24.50;83.40;;;;;;5052392;28;20033;-86
2021/07/18 12:27:21;;;;;;;3.80;2.20;;;24.50;82.80;;;;;;5032832;28;20048;-87
2021/07/18 12:29:52;;;;;;;7.15;2.30;;;24.60;83.00;;;;;;5031178;28;20044;-88
2021/07/18 12:32:20;;;;;;;3.78;2.28;;;24.50;83.10;;;;;;5047340;28;20510;-89
2021/07/18 12:34:50;;;;;;;2.75;2.10;;;24.50;82.50;;;;;;5047507;28;20359;-86
2021/07/18 12:37:20;;;;;;;3.88;1.95;;;24.50;82.20;;;;;;5030406;28;20037;-90
2021/07/18 12:39:52;;;;;;;3.67;2.20;;;24.50;81.40;;;;;;5045055;28;20041;-89